Terminal Aerodrome Forecast
Issued by NWS

Home | Current Version | Previous Version | Text Only | Print | Product List | Glossary On
Versions: 1 2 3 4 5 6 7 8 9 10 11 12 13 14 15 16 17 18 19 20 21 22
000
FTUS43 KILX 181300 AAA
TAFDEC
TAF AMD
KDEC 181317Z 1813/1912 VRB03KT P6SM BKN020 OVC100
     FM181500 VRB03KT P6SM OVC080
     FM181700 34003KT P6SM VCSH OVC040
      TEMPO 1817/1821 BKN030
     FM190400 VRB03KT P6SM SCT040 BKN250=

USA.gov is the U.S. government's official web portal to all federal, state and local government web resources and services.